Time;durP1;ratioP1;P1;durP2;ratioP2;P2;SDS_P1;SDS_P2;PMS_P1;PMS_P2;Temp;Humidity;BMP_temperature;BMP_pressure;BME280_temperature;BME280_humidity;BME280_pressure;Samples;Min_cycle;Max_cycle;Signal;HPM_P1;HPM_P2
2022/01/25 00:27:00;;;;;;;13.70;8.98;;;5.20;99.90;;;;;;5018378;28;20030;-77
2022/01/25 00:29:27;;;;;;;12.40;8.70;;;5.20;99.90;;;;;;5013940;28;20053;-77
2022/01/25 00:31:53;;;;;;;12.48;7.85;;;5.20;99.90;;;;;;5017197;28;20395;-77
2022/01/25 00:34:18;;;;;;;;;;;5.20;99.90;;;;;;5017125;28;20041;-77
2022/01/25 00:36:44;;;;;;;14.02;8.10;;;5.20;99.90;;;;;;5013748;28;19917;-77
2022/01/25 00:39:09;;;;;;;11.93;8.10;;;5.20;99.90;;;;;;5016318;28;20025;-77
2022/01/25 00:41:35;;;;;;;;;;;5.20;99.90;;;;;;5018041;28;20030;-77
2022/01/25 00:44:01;;;;;;;13.38;7.93;;;5.20;99.90;;;;;;5016970;28;19917;-77
2022/01/25 00:46:28;;;;;;;14.50;8.07;;;5.20;99.90;;;;;;5017509;28;20402;-78
2022/01/25 00:48:59;;;;;;;23.67;10.13;;;5.20;99.90;;;;;;5017062;28;20084;-77
2022/01/25 01:06:43;;;;;;;10.07;8.68;;;5.10;99.90;;;;;;5018830;28;20446;-77
2022/01/25 01:13:04;;;;;;;15.10;9.60;;;5.10;99.90;;;;;;5019156;28;20028;-77
2022/01/25 01:15:49;;;;;;;13.45;9.65;;;5.00;99.90;;;;;;5018726;28;20022;-77
2022/01/25 01:37:25;;;;;;;14.73;10.55;;;5.10;99.90;;;;;;5014686;28;20096;-77
2022/01/25 01:42:37;;;;;;;12.85;10.20;;;5.10;99.90;;;;;;5016699;28;20040;-78
2022/01/25 01:47:48;;;;;;;14.70;9.73;;;5.00;99.90;;;;;;5015438;28;20327;-77
2022/01/25 01:50:26;;;;;;;15.77;10.75;;;5.00;99.90;;;;;;5015982;28;20494;-77
2022/01/25 01:52:53;;;;;;;14.77;9.77;;;5.00;99.90;;;;;;5012271;28;20033;-77
2022/01/25 01:55:19;;;;;;;12.32;9.73;;;5.00;99.90;;;;;;5015419;28;20111;-78
2022/01/25 01:57:48;;;;;;;18.45;10.05;;;5.00;99.90;;;;;;5016107;28;20029;-77
2022/01/25 02:00:16;;;;;;;15.75;9.63;;;5.00;99.90;;;;;;5013130;28;20026;-77
2022/01/25 02:02:43;;;;;;;14.38;10.13;;;5.00;99.90;;;;;;5012140;28;20030;-78
2022/01/25 02:05:09;;;;;;;13.40;10.38;;;5.00;99.90;;;;;;5012094;28;20034;-77
2022/01/25 02:07:34;;;;;;;;;;;5.00;99.90;;;;;;5016560;28;20106;-77
2022/01/25 02:10:00;;;;;;;15.35;10.65;;;5.10;99.90;;;;;;5012008;28;19916;-77
2022/01/25 02:12:26;;;;;;;;;;;5.10;99.90;;;;;;5014562;28;20108;-77
2022/01/25 02:14:52;;;;;;;15.57;9.20;;;5.00;99.90;;;;;;5013396;28;19910;-78
2022/01/25 02:23:21;;;;;;;18.75;10.88;;;4.90;99.90;;;;;;5014309;28;20024;-78
2022/01/25 02:25:48;;;;;;;19.98;12.40;;;4.90;99.90;;;;;;5017120;28;20517;-77
2022/01/25 02:28:14;;;;;;;21.52;11.90;;;4.90;99.90;;;;;;5014897;28;20129;-77
2022/01/25 02:30:40;;;;;;;;;;;4.90;99.90;;;;;;5015346;28;20033;-77
2022/01/25 02:33:05;;;;;;;17.63;12.27;;;4.80;99.90;;;;;;5015898;28;19935;-77
2022/01/25 02:35:31;;;;;;;17.67;11.15;;;4.80;99.90;;;;;;5017624;28;20045;-77
2022/01/25 02:37:56;;;;;;;16.52;10.82;;;4.80;99.90;;;;;;5011380;28;20038;-77
2022/01/25 02:40:22;;;;;;;19.58;11.35;;;4.80;99.90;;;;;;5015002;28;20033;-77
2022/01/25 02:42:47;;;;;;;17.13;10.07;;;4.80;99.90;;;;;;5015309;28;20030;-77
2022/01/25 02:45:16;;;;;;;;;;;4.80;99.90;;;;;;5019634;28;20037;-78
2022/01/25 02:50:26;;;;;;;20.90;11.70;;;4.70;99.90;;;;;;5019457;28;20040;-78
2022/01/25 02:52:51;;;;;;;15.70;10.10;;;4.80;99.90;;;;;;5018399;28;20030;-78
2022/01/25 02:55:20;;;;;;;22.38;11.90;;;4.80;99.90;;;;;;5018733;28;20106;-77
2022/01/25 02:57:48;;;;;;;14.65;11.65;;;4.80;99.90;;;;;;5018922;28;20026;-77
2022/01/25 03:00:15;;;;;;;18.58;12.45;;;4.80;99.90;;;;;;5019230;28;20025;-77
2022/01/25 03:02:40;;;;;;;20.10;13.05;;;4.80;99.90;;;;;;5019335;28;20026;-77
2022/01/25 03:05:07;;;;;;;21.77;12.52;;;4.80;99.90;;;;;;5019852;28;20029;-77
2022/01/25 03:07:33;;;;;;;22.80;12.50;;;4.80;99.90;;;;;;5018588;28;20032;-77
2022/01/25 03:10:00;;;;;;;18.35;12.90;;;4.80;99.90;;;;;;5018093;28;20029;-77
2022/01/25 03:12:38;;;;;;;19.75;12.80;;;4.80;99.90;;;;;;5017043;28;20034;-77
2022/01/25 03:15:54;;;;;;;20.60;11.85;;;4.90;99.90;;;;;;5018437;28;20048;-77
2022/01/25 03:18:00;;;;;;;25.63;14.27;;;4.90;99.90;;;;;;5015283;28;20038;-77
2022/01/25 03:20:48;;;;;;;22.42;13.13;;;4.90;99.90;;;;;;5019447;28;20204;-77
2022/01/25 03:23:21;;;;;;;20.77;13.68;;;4.90;99.90;;;;;;5020261;28;20053;-77
2022/01/25 03:25:48;;;;;;;26.00;13.98;;;4.90;99.90;;;;;;5019966;28;20395;-77
2022/01/25 03:28:19;;;;;;;22.88;13.90;;;4.90;99.90;;;;;;5018130;28;20482;-77
2022/01/25 03:30:45;;;;;;;23.08;14.60;;;4.90;99.90;;;;;;5019170;28;20083;-77
2022/01/25 03:33:11;;;;;;;30.27;15.27;;;4.90;99.90;;;;;;5019980;28;20026;-77
2022/01/25 03:35:37;;;;;;;28.95;14.75;;;4.80;99.90;;;;;;5018908;28;20022;-77
2022/01/25 03:38:03;;;;;;;22.88;14.15;;;4.80;99.90;;;;;;5018127;28;20075;-77
2022/01/25 03:40:29;;;;;;;;;;;4.80;99.90;;;;;;5018984;28;20413;-77
2022/01/25 03:42:55;;;;;;;29.00;15.35;;;4.80;99.90;;;;;;5018146;28;20004;-76
2022/01/25 03:45:28;;;;;;;26.95;15.65;;;4.80;99.90;;;;;;5016750;28;20040;-77
2022/01/25 03:50:40;;;;;;;31.13;17.45;;;4.70;99.90;;;;;;5017781;28;20417;-77
2022/01/25 03:53:10;;;;;;;30.50;17.52;;;4.70;99.90;;;;;;5018544;28;20079;-77
2022/01/25 03:55:36;;;;;;;24.98;16.08;;;4.70;99.90;;;;;;5016710;28;20037;-77
2022/01/25 03:58:02;;;;;;;28.73;16.73;;;4.80;99.90;;;;;;5018031;28;20029;-77
2022/01/25 04:00:27;;;;;;;;;;;4.80;99.90;;;;;;5015220;28;20049;-77
2022/01/25 04:03:07;;;;;;;31.48;16.55;;;4.80;99.90;;;;;;5017885;28;20004;-77
2022/01/25 04:05:47;;;;;;;27.30;16.45;;;4.80;99.90;;;;;;5014681;28;20064;-77
2022/01/25 04:08:13;;;;;;;27.95;17.50;;;4.80;99.90;;;;;;5017646;28;20037;-77
2022/01/25 04:10:40;;;;;;;26.90;16.33;;;4.80;99.90;;;;;;5014439;28;20087;-77
2022/01/25 04:13:07;;;;;;;34.63;19.52;;;4.80;99.90;;;;;;5017113;28;20029;-77
2022/01/25 04:15:33;;;;;;;31.33;16.73;;;4.90;99.90;;;;;;5016129;28;20080;-76
2022/01/25 04:20:54;;;;;;;27.38;16.10;;;4.90;99.90;;;;;;5016964;28;19915;-77
2022/01/25 04:26:03;;;;;;;33.80;17.65;;;4.80;99.90;;;;;;5016613;28;20415;-77
2022/01/25 04:28:29;;;;;;;30.27;16.85;;;4.90;99.90;;;;;;5018010;28;20125;-77
2022/01/25 04:30:54;;;;;;;29.38;18.23;;;4.90;99.90;;;;;;5016339;28;20021;-77
2022/01/25 04:33:25;;;;;;;29.90;16.30;;;4.80;99.90;;;;;;5017522;28;20037;-77
2022/01/25 04:49:32;;;;;;;30.58;17.00;;;4.70;99.90;;;;;;5018064;28;20072;-77
2022/01/25 04:52:05;;;;;;;31.05;17.92;;;4.60;99.90;;;;;;5016349;28;20379;-77
2022/01/25 04:57:46;;;;;;;29.25;16.48;;;4.70;99.90;;;;;;5016712;28;20124;-77
2022/01/25 05:00:11;;;;;;;26.50;16.13;;;4.70;99.90;;;;;;5012675;28;20483;-77
2022/01/25 05:08:03;;;;;;;31.23;16.80;;;4.70;99.90;;;;;;5015398;28;20029;-77
2022/01/25 05:10:32;;;;;;;31.17;16.00;;;4.70;99.90;;;;;;5017200;28;20083;-77
2022/01/25 05:13:26;;;;;;;33.53;16.70;;;4.70;99.90;;;;;;5013397;28;20037;-77
2022/01/25 05:16:26;;;;;;;28.02;15.65;;;4.70;99.90;;;;;;5016482;28;20018;-77
2022/01/25 05:19:02;;;;;;;30.83;17.80;;;4.60;99.90;;;;;;5012289;28;20105;-77
2022/01/25 05:24:11;;;;;;;31.58;17.73;;;4.60;99.90;;;;;;5012798;28;20334;-76
2022/01/25 05:26:37;;;;;;;30.88;17.48;;;4.60;99.90;;;;;;5011346;28;20041;-76
2022/01/25 05:29:03;;;;;;;;;;;4.60;99.90;;;;;;5015335;28;20375;-76
2022/01/25 05:31:29;;;;;;;29.90;15.77;;;4.60;99.90;;;;;;5014765;28;19919;-76
2022/01/25 05:33:54;;;;;;;31.05;15.68;;;4.60;99.90;;;;;;5018036;28;20022;-78
2022/01/25 05:36:20;;;;;;;32.10;18.38;;;4.60;99.90;;;;;;5016682;28;20091;-77
2022/01/25 05:38:47;;;;;;;33.60;19.83;;;4.60;99.90;;;;;;5015394;28;20028;-77
2022/01/25 05:41:13;;;;;;;33.90;19.05;;;4.90;99.90;;;;;;5017357;28;20044;-77
2022/01/25 05:46:33;;;;;;;41.70;21.40;;;5.00;99.90;;;;;;5014876;28;20466;-77
2022/01/25 05:48:59;;;;;;;43.80;20.33;;;4.90;99.90;;;;;;5012793;28;20076;-77
2022/01/25 05:51:24;;;;;;;39.05;21.85;;;4.80;99.90;;;;;;5016747;28;20053;-76
2022/01/25 05:53:50;;;;;;;41.90;23.38;;;4.70;99.90;;;;;;5014954;28;20056;-78
2022/01/25 05:56:16;;;;;;;38.13;22.15;;;4.60;99.90;;;;;;5015580;28;20033;-78
2022/01/25 05:58:42;;;;;;;47.55;23.98;;;4.60;99.90;;;;;;5015930;28;20108;-77
2022/01/25 06:01:07;;;;;;;44.47;22.15;;;4.50;99.90;;;;;;5016802;28;20587;-78
2022/01/25 06:03:33;;;;;;;54.72;26.98;;;4.50;99.90;;;;;;5015948;28;20378;-77
2022/01/25 06:05:59;;;;;;;42.42;22.63;;;4.50;99.90;;;;;;5016202;28;20035;-77
2022/01/25 06:08:24;;;;;;;50.15;25.90;;;4.50;99.90;;;;;;5013527;28;20068;-78
2022/01/25 06:10:50;;;;;;;45.88;24.55;;;4.40;99.90;;;;;;5015486;28;20065;-77
2022/01/25 06:13:15;;;;;;;42.45;23.77;;;4.40;99.90;;;;;;5015464;28;20060;-78
2022/01/25 06:15:41;;;;;;;50.10;25.25;;;4.40;99.90;;;;;;5017122;28;20086;-81
2022/01/25 06:18:06;;;;;;;47.05;23.98;;;4.40;99.90;;;;;;5015106;28;20468;-79
2022/01/25 06:20:33;;;;;;;51.47;26.23;;;4.40;99.90;;;;;;5010816;28;20029;-78
2022/01/25 06:23:00;;;;;;;53.00;26.55;;;4.30;99.90;;;;;;5011586;28;20067;-77
2022/01/25 06:25:25;;;;;;;50.70;24.77;;;4.30;99.90;;;;;;5012207;28;20053;-77
2022/01/25 06:27:51;;;;;;;50.83;24.65;;;4.30;99.90;;;;;;5013639;28;20494;-77
2022/01/25 06:30:18;;;;;;;51.80;25.48;;;4.40;99.90;;;;;;5015364;28;20087;-77
2022/01/25 06:32:45;;;;;;;46.22;25.27;;;4.40;99.90;;;;;;5014088;28;20037;-78
2022/01/25 06:35:12;;;;;;;54.30;27.40;;;4.40;99.90;;;;;;5014376;28;20034;-77
2022/01/25 06:37:38;;;;;;;51.80;25.92;;;4.40;99.90;;;;;;5015466;28;20052;-77
2022/01/25 06:40:06;;;;;;;49.45;25.17;;;4.30;99.90;;;;;;5016390;28;20568;-78
2022/01/25 06:42:32;;;;;;;50.83;25.02;;;4.30;99.90;;;;;;5013152;28;20038;-77
2022/01/25 06:45:04;;;;;;;49.90;27.42;;;4.30;99.90;;;;;;5016941;28;20041;-77
2022/01/25 06:47:30;;;;;;;47.35;24.50;;;4.30;99.90;;;;;;5017035;28;20392;-77
2022/01/25 06:49:57;;;;;;;52.95;25.38;;;4.30;99.90;;;;;;5017287;28;20187;-77
2022/01/25 06:52:22;;;;;;;52.72;24.90;;;4.30;99.90;;;;;;5016050;28;20021;-77
2022/01/25 06:54:48;;;;;;;54.13;26.27;;;4.30;99.90;;;;;;5017278;28;20117;-77
2022/01/25 06:57:13;;;;;;;46.83;24.45;;;4.30;99.90;;;;;;5016616;28;20044;-77
2022/01/25 06:59:39;;;;;;;52.85;25.27;;;4.30;99.90;;;;;;5015748;28;20131;-77
2022/01/25 07:02:06;;;;;;;53.33;24.58;;;4.30;99.90;;;;;;5016158;28;20026;-78
2022/01/25 07:04:31;;;;;;;50.17;25.98;;;4.30;99.90;;;;;;5016497;28;20029;-77
2022/01/25 07:06:57;;;;;;;53.90;25.75;;;4.30;99.90;;;;;;5014421;28;20029;-76
2022/01/25 07:09:22;;;;;;;44.58;23.38;;;4.20;99.90;;;;;;5016269;28;20040;-77
2022/01/25 07:11:48;;;;;;;43.75;23.27;;;4.30;99.90;;;;;;5016374;28;20040;-78
2022/01/25 07:14:14;;;;;;;47.35;24.08;;;4.20;99.90;;;;;;5014449;28;20072;-77
2022/01/25 07:16:39;;;;;;;51.00;22.55;;;4.20;99.90;;;;;;5012471;28;20037;-80
2022/01/25 07:19:05;;;;;;;48.40;24.48;;;4.20;99.90;;;;;;5009288;28;20520;-79
2022/01/25 07:21:30;;;;;;;49.17;24.75;;;4.20;99.90;;;;;;5011859;28;20096;-75
2022/01/25 07:23:56;;;;;;;44.85;22.27;;;4.20;99.90;;;;;;5011697;28;20063;-78
2022/01/25 07:26:21;;;;;;;41.13;23.02;;;4.20;99.90;;;;;;5012941;28;20441;-76
2022/01/25 07:28:47;;;;;;;42.65;21.38;;;4.20;99.90;;;;;;5011708;28;20037;-77
2022/01/25 07:31:13;;;;;;;45.20;23.05;;;4.10;99.90;;;;;;5017661;28;20022;-77
2022/01/25 07:33:39;;;;;;;47.42;24.35;;;4.10;99.90;;;;;;5016030;28;20030;-76
2022/01/25 07:36:05;;;;;;;46.38;23.70;;;4.10;99.90;;;;;;5017942;28;20029;-77
2022/01/25 07:38:31;;;;;;;47.55;23.80;;;4.10;99.90;;;;;;5013575;28;20034;-79
2022/01/25 07:40:57;;;;;;;48.78;25.40;;;4.10;99.90;;;;;;5019488;28;20034;-78
2022/01/25 07:43:22;;;;;;;45.63;23.13;;;4.10;99.90;;;;;;5018236;28;20161;-77
2022/01/25 07:45:52;;;;;;;42.25;23.98;;;4.20;99.90;;;;;;5020929;28;20049;-76
2022/01/25 07:48:19;;;;;;;48.00;25.52;;;4.20;99.90;;;;;;5016096;28;20148;-77
2022/01/25 07:50:45;;;;;;;50.65;25.08;;;4.20;99.90;;;;;;5019497;28;20044;-77
2022/01/25 07:53:11;;;;;;;;;;;4.10;99.90;;;;;;5017391;28;20032;-81
2022/01/25 07:55:36;;;;;;;48.63;25.52;;;4.20;99.90;;;;;;5018085;28;19992;-79
2022/01/25 07:58:03;;;;;;;45.70;23.08;;;4.20;99.90;;;;;;5017090;28;20053;-80
2022/01/25 08:00:29;;;;;;;48.42;23.88;;;4.10;99.90;;;;;;5016968;28;20563;-79
2022/01/25 08:02:54;;;;;;;47.78;24.88;;;4.20;99.90;;;;;;5017050;28;20113;-77
2022/01/25 08:05:23;;;;;;;45.90;23.83;;;4.20;99.90;;;;;;5017159;28;20132;-79
2022/01/25 08:07:48;;;;;;;51.60;24.17;;;4.20;99.90;;;;;;5017853;28;20034;-82
2022/01/25 08:10:14;;;;;;;54.88;24.90;;;4.20;99.90;;;;;;5016923;28;20045;-84
2022/01/25 08:12:39;;;;;;;45.33;24.75;;;4.20;99.90;;;;;;5018672;28;20136;-83
2022/01/25 08:15:06;;;;;;;47.10;22.48;;;4.20;99.90;;;;;;5016610;28;20056;-80
2022/01/25 08:17:32;;;;;;;43.00;22.27;;;4.20;99.90;;;;;;5018359;28;20026;-77
2022/01/25 08:19:58;;;;;;;48.33;22.60;;;4.20;99.90;;;;;;5018525;28;20101;-74
2022/01/25 08:22:27;;;;;;;;;;;4.20;99.90;;;;;;5015457;28;20141;-73
2022/01/25 08:24:52;;;;;;;44.28;20.13;;;4.10;99.90;;;;;;5017934;28;20361;-72
2022/01/25 08:27:20;;;;;;;48.35;21.77;;;4.20;99.90;;;;;;5015737;28;20028;-76
2022/01/25 08:29:46;;;;;;;52.80;26.85;;;4.20;99.90;;;;;;5017752;28;20456;-80
2022/01/25 08:32:12;;;;;;;58.30;29.05;;;4.30;99.90;;;;;;5017399;28;20022;-81
2022/01/25 08:34:38;;;;;;;44.63;24.75;;;4.30;99.90;;;;;;5017655;28;20033;-78
2022/01/25 08:37:04;;;;;;;64.55;27.67;;;4.30;99.90;;;;;;5016021;28;20064;-78
2022/01/25 08:39:29;;;;;;;58.70;27.48;;;4.40;99.90;;;;;;5015597;28;21681;-78
2022/01/25 08:41:55;;;;;;;51.45;24.25;;;4.40;99.90;;;;;;5016959;28;20037;-80
2022/01/25 08:44:21;;;;;;;42.03;22.75;;;4.40;99.90;;;;;;5019234;28;20068;-77
2022/01/25 08:46:46;;;;;;;46.30;23.75;;;4.50;99.90;;;;;;5017640;28;20817;-79
2022/01/25 08:49:12;;;;;;;58.03;26.25;;;4.50;99.90;;;;;;5016774;28;20056;-77
2022/01/25 08:51:38;;;;;;;43.53;25.10;;;4.50;99.90;;;;;;5016942;28;20064;-76
2022/01/25 08:54:03;;;;;;;45.90;23.30;;;4.50;99.90;;;;;;5015142;28;20425;-76
2022/01/25 08:56:29;;;;;;;49.28;24.27;;;4.50;99.90;;;;;;5018865;28;20022;-77
2022/01/25 08:58:55;;;;;;;47.90;23.15;;;4.50;99.90;;;;;;5016731;28;20030;-76
2022/01/25 09:01:21;;;;;;;48.60;24.60;;;4.50;99.90;;;;;;5017719;28;20050;-74
2022/01/25 09:03:46;;;;;;;;;;;4.50;99.90;;;;;;5017299;28;20398;-74
2022/01/25 09:06:12;;;;;;;44.42;21.50;;;4.50;99.90;;;;;;5016835;28;20039;-73
2022/01/25 09:08:38;;;;;;;;;;;4.50;99.90;;;;;;5014213;28;20029;-74
2022/01/25 09:11:05;;;;;;;40.53;21.75;;;4.50;99.90;;;;;;5017474;28;19916;-77
2022/01/25 09:13:31;;;;;;;42.60;23.30;;;4.50;99.90;;;;;;5016201;28;20026;-78
2022/01/25 09:15:58;;;;;;;50.03;23.23;;;4.60;99.90;;;;;;5016932;28;20030;-78
2022/01/25 09:18:23;;;;;;;49.95;21.73;;;4.60;99.90;;;;;;5015985;28;20083;-79
2022/01/25 09:20:49;;;;;;;35.50;19.90;;;4.60;99.90;;;;;;5018770;28;20026;-77
2022/01/25 09:23:17;;;;;;;44.42;20.20;;;4.60;99.90;;;;;;5016876;28;20045;-77
2022/01/25 09:25:43;;;;;;;45.70;23.55;;;4.60;99.90;;;;;;5015777;28;20122;-77
2022/01/25 09:28:08;;;;;;;41.55;21.33;;;4.60;99.90;;;;;;5016524;28;20188;-76
2022/01/25 09:30:34;;;;;;;46.40;21.83;;;4.60;99.90;;;;;;5018706;28;20033;-76
2022/01/25 09:32:59;;;;;;;50.55;22.15;;;4.60;99.90;;;;;;5016209;28;20022;-76
2022/01/25 09:35:26;;;;;;;40.03;22.98;;;4.60;99.90;;;;;;5017875;28;20026;-76
2022/01/25 09:37:51;;;;;;;42.63;22.38;;;4.70;99.90;;;;;;5014514;28;20030;-76
2022/01/25 09:40:20;;;;;;;46.78;22.85;;;4.70;99.90;;;;;;5015645;28;20417;-75
2022/01/25 09:42:50;;;;;;;44.72;22.48;;;4.70;99.90;;;;;;5013946;28;20041;-75
2022/01/25 09:45:16;;;;;;;47.33;23.40;;;4.60;99.90;;;;;;5014521;28;20034;-76
2022/01/25 09:47:42;;;;;;;42.85;21.38;;;4.70;99.90;;;;;;5016742;28;20376;-77
2022/01/25 09:50:08;;;;;;;44.17;24.13;;;4.60;99.90;;;;;;5014854;28;20045;-76
2022/01/25 09:52:34;;;;;;;43.83;21.73;;;4.70;99.90;;;;;;5015154;28;20033;-76
2022/01/25 09:55:03;;;;;;;45.78;22.63;;;4.70;99.90;;;;;;5017365;28;20026;-75
2022/01/25 09:57:28;;;;;;;42.85;23.52;;;4.70;99.90;;;;;;5014855;28;20052;-76
2022/01/25 09:59:56;;;;;;;47.97;23.02;;;4.70;99.90;;;;;;5013275;28;20510;-77
2022/01/25 10:02:59;;;;;;;40.40;21.40;;;4.70;99.90;;;;;;5014058;28;20057;-78
2022/01/25 10:05:31;;;;;;;51.47;22.40;;;4.70;99.90;;;;;;5016291;28;20057;-78
2022/01/25 10:08:01;;;;;;;53.13;25.90;;;4.80;99.90;;;;;;5014563;28;20026;-77
2022/01/25 10:10:29;;;;;;;47.20;22.58;;;4.80;99.90;;;;;;5014553;28;20462;-77
2022/01/25 10:13:05;;;;;;;54.80;25.25;;;4.80;99.90;;;;;;5015457;28;20499;-76
2022/01/25 10:15:31;;;;;;;51.03;25.75;;;4.80;99.90;;;;;;5015977;28;20045;-78
2022/01/25 10:17:56;;;;;;;46.63;23.02;;;4.80;99.90;;;;;;5015687;28;20410;-77
2022/01/25 10:20:37;;;;;;;48.22;24.00;;;4.80;99.90;;;;;;5015295;28;20022;-77
2022/01/25 10:23:14;;;;;;;52.90;24.50;;;4.80;99.90;;;;;;5013843;28;20041;-77
2022/01/25 10:25:45;;;;;;;46.47;24.83;;;4.80;99.90;;;;;;5015123;28;20112;-77
2022/01/25 10:28:14;;;;;;;45.72;22.90;;;4.80;99.90;;;;;;5013500;28;20025;-78
2022/01/25 10:30:50;;;;;;;48.42;23.48;;;4.80;99.90;;;;;;5013648;28;20026;-79
2022/01/25 10:33:24;;;;;;;54.80;24.55;;;4.80;99.90;;;;;;5016781;28;20037;-79
2022/01/25 10:35:50;;;;;;;60.42;26.65;;;4.80;99.90;;;;;;5006342;28;20483;-79
2022/01/25 10:38:21;;;;;;;51.97;25.52;;;4.90;99.90;;;;;;5015136;28;20034;-79
2022/01/25 10:40:59;;;;;;;48.00;24.92;;;4.80;99.90;;;;;;5016452;28;20033;-79
2022/01/25 10:43:27;;;;;;;43.95;22.75;;;4.90;99.90;;;;;;5032501;22;20102;-72
2022/01/25 10:46:12;;;;;;;42.92;21.80;;;4.80;99.90;;;;;;5011293;28;20073;-73
2022/01/25 10:48:43;;;;;;;38.75;21.05;;;4.90;99.90;;;;;;5015966;28;20046;-72
2022/01/25 10:51:12;;;;;;;45.35;21.85;;;4.90;99.90;;;;;;5013336;28;20427;-73
2022/01/25 10:53:38;;;;;;;44.92;21.35;;;4.90;99.90;;;;;;5012922;28;20107;-73
2022/01/25 10:56:05;;;;;;;;;;;4.90;99.90;;;;;;5013622;28;20029;-72
2022/01/25 10:58:30;;;;;;;51.92;22.67;;;4.90;99.90;;;;;;5013901;28;19949;-72
2022/01/25 11:00:58;;;;;;;49.22;22.75;;;4.90;99.90;;;;;;5014906;28;20067;-73
2022/01/25 11:03:36;;;;;;;42.47;23.38;;;4.90;99.90;;;;;;5015019;28;20121;-73
2022/01/25 11:06:15;;;;;;;46.53;23.67;;;4.90;99.90;;;;;;5016889;28;20037;-71
2022/01/25 11:08:42;;;;;;;48.35;24.70;;;4.80;99.90;;;;;;5017727;28;20029;-70
2022/01/25 11:11:10;;;;;;;48.50;23.98;;;4.80;99.90;;;;;;5016676;28;20471;-70
2022/01/25 11:13:40;;;;;;;51.05;24.23;;;4.80;99.90;;;;;;5018289;28;20116;-70
2022/01/25 11:16:08;;;;;;;53.75;25.88;;;4.80;99.90;;;;;;5019042;28;20037;-71
2022/01/25 11:18:34;;;;;;;40.53;22.83;;;4.90;99.90;;;;;;5017474;28;20628;-70
2022/01/25 11:21:03;;;;;;;47.60;23.40;;;4.90;99.90;;;;;;5018724;28;20056;-71
2022/01/25 11:23:32;;;;;;;55.55;23.80;;;5.00;99.90;;;;;;5018581;28;20029;-71
2022/01/25 11:26:01;;;;;;;44.63;22.33;;;5.00;99.90;;;;;;5014761;28;20026;-71
2022/01/25 11:28:27;;;;;;;42.45;20.85;;;5.10;99.90;;;;;;5016646;28;20525;-71
2022/01/25 11:30:53;;;;;;;51.65;23.23;;;5.10;99.90;;;;;;5019022;28;20139;-71
2022/01/25 11:33:20;;;;;;;42.22;20.25;;;5.10;99.90;;;;;;5019373;28;20030;-71
2022/01/25 11:35:47;;;;;;;42.70;20.90;;;5.10;99.90;;;;;;5017703;28;20061;-71
2022/01/25 11:38:13;;;;;;;49.92;21.08;;;5.20;99.90;;;;;;5017760;28;20072;-71
2022/01/25 11:40:46;;;;;;;53.25;20.48;;;5.20;99.90;;;;;;5019699;28;20042;-71
2022/01/25 11:43:14;;;;;;;46.42;21.40;;;5.20;99.90;;;;;;5019401;28;20025;-71
2022/01/25 11:45:49;;;;;;;45.80;20.92;;;5.30;99.90;;;;;;5019127;28;20581;-71
2022/01/25 11:48:22;;;;;;;50.83;22.98;;;5.30;99.90;;;;;;5019598;28;20056;-71
2022/01/25 11:50:47;;;;;;;42.63;20.25;;;5.40;99.90;;;;;;5019935;28;20057;-71
2022/01/25 11:53:17;;;;;;;42.80;20.27;;;5.40;99.90;;;;;;5011556;28;20056;-71
2022/01/25 11:55:51;;;;;;;42.28;20.70;;;5.50;99.90;;;;;;5015956;28;20034;-71
2022/01/25 11:58:27;;;;;;;41.40;20.63;;;5.60;99.90;;;;;;5015603;28;20032;-72
2022/01/25 12:00:55;;;;;;;40.17;19.70;;;5.60;99.90;;;;;;5017159;28;20026;-71
2022/01/25 12:03:40;;;;;;;36.22;19.55;;;5.60;99.90;;;;;;5020546;28;20118;-71
2022/01/25 12:06:59;;;;;;;43.58;20.05;;;5.60;99.90;;;;;;5011189;28;20025;-72
2022/01/25 12:09:31;;;;;;;36.22;20.73;;;5.70;99.90;;;;;;5002672;28;20490;-71
2022/01/25 12:14:33;;;;;;;43.10;19.27;;;5.60;99.90;;;;;;5017370;28;20058;-71
2022/01/25 12:17:04;;;;;;;38.78;17.67;;;5.60;99.90;;;;;;5018829;28;20025;-70
2022/01/25 12:19:50;;;;;;;45.28;20.67;;;5.60;99.90;;;;;;5006802;28;20383;-71
2022/01/25 12:25:26;;;;;;;44.78;24.35;;;5.70;99.90;;;;;;5017197;28;20171;-70
2022/01/25 12:28:02;;;;;;;45.67;20.35;;;5.80;99.90;;;;;;5016773;28;20037;-70
2022/01/25 12:30:36;;;;;;;34.55;18.33;;;5.80;99.90;;;;;;5016778;28;20393;-70
2022/01/25 12:33:24;;;;;;;35.25;18.02;;;5.90;99.90;;;;;;5018405;28;20061;-71
2022/01/25 12:36:03;;;;;;;34.83;19.40;;;6.00;99.90;;;;;;5015240;28;20022;-71
2022/01/25 12:38:41;;;;;;;40.85;20.30;;;6.00;99.90;;;;;;5017472;28;20034;-73
2022/01/25 12:41:12;;;;;;;41.95;19.30;;;6.00;99.90;;;;;;5014390;28;20041;-71
2022/01/25 12:43:44;;;;;;;36.25;16.67;;;6.00;99.90;;;;;;5017876;28;20048;-72
2022/01/25 12:46:16;;;;;;;37.47;17.90;;;6.00;99.90;;;;;;5017818;28;20037;-72
2022/01/25 12:48:46;;;;;;;30.33;17.67;;;5.90;99.90;;;;;;5016809;28;20108;-73
2022/01/25 12:51:15;;;;;;;33.40;16.80;;;5.80;99.90;;;;;;5017306;28;20048;-73
2022/01/25 12:53:44;;;;;;;43.28;19.85;;;5.70;99.90;;;;;;5015999;28;20034;-74
2022/01/25 12:56:18;;;;;;;37.55;21.63;;;5.80;99.90;;;;;;5015211;28;20105;-73
2022/01/25 12:58:47;;;;;;;50.33;19.52;;;5.90;99.90;;;;;;5014602;28;20042;-72
2022/01/25 13:01:17;;;;;;;38.70;19.67;;;5.90;99.90;;;;;;5014719;28;20030;-72
2022/01/25 13:03:50;;;;;;;39.55;19.27;;;5.90;99.90;;;;;;5014900;28;20167;-72
2022/01/25 13:06:28;;;;;;;42.10;20.65;;;5.80;99.90;;;;;;5016788;28;20109;-71
2022/01/25 13:09:15;;;;;;;39.53;19.23;;;5.70;99.90;;;;;;5014511;28;20036;-72
2022/01/25 13:17:03;;;;;;;39.42;18.13;;;5.90;99.90;;;;;;5015979;28;20061;-70
2022/01/25 13:19:36;;;;;;;;;;;6.00;99.90;;;;;;5015942;28;20037;-70
2022/01/25 13:22:35;;;;;;;37.25;20.08;;;6.00;99.90;;;;;;5016313;28;19970;-70
2022/01/25 13:25:14;;;;;;;37.50;18.75;;;6.00;99.90;;;;;;5017403;28;20091;-71
2022/01/25 13:27:56;;;;;;;36.20;18.10;;;6.00;99.90;;;;;;5015275;28;20029;-71
2022/01/25 13:30:40;;;;;;;43.92;20.15;;;6.10;99.90;;;;;;5010968;28;20033;-70
2022/01/25 13:33:06;;;;;;;39.60;19.45;;;6.10;99.90;;;;;;5016490;28;20033;-70
2022/01/25 13:35:34;;;;;;;;;;;6.10;99.90;;;;;;5017068;28;20034;-71
2022/01/25 13:38:17;;;;;;;40.55;19.33;;;6.10;99.90;;;;;;5014929;28;19943;-71
2022/01/25 13:40:54;;;;;;;32.88;17.98;;;6.10;99.90;;;;;;5014948;28;20386;-71
2022/01/25 13:45:59;;;;;;;30.48;16.40;;;6.10;99.90;;;;;;5015273;28;20030;-70
2022/01/25 13:48:27;;;;;;;38.80;18.35;;;6.00;99.90;;;;;;5014194;28;20116;-70
2022/01/25 13:50:55;;;;;;;38.33;17.90;;;6.00;99.90;;;;;;5014396;28;20049;-71
2022/01/25 13:53:20;;;;;;;34.72;16.55;;;6.00;99.90;;;;;;5014800;28;20101;-71
2022/01/25 13:55:52;;;;;;;33.45;16.50;;;6.00;99.90;;;;;;5015313;28;20530;-71
2022/01/25 13:58:23;;;;;;;39.03;16.25;;;6.00;99.90;;;;;;5014150;28;20393;-71
2022/01/25 14:00:49;;;;;;;36.33;18.55;;;5.90;99.90;;;;;;5011623;28;20483;-71
2022/01/25 14:03:16;;;;;;;41.70;19.05;;;5.90;99.90;;;;;;5015422;28;20493;-71
2022/01/25 14:05:42;;;;;;;32.80;17.52;;;5.90;99.90;;;;;;5016204;28;20049;-70
2022/01/25 14:08:07;;;;;;;36.45;18.20;;;6.00;99.90;;;;;;5014448;28;20428;-71
2022/01/25 14:10:33;;;;;;;35.50;18.45;;;5.90;99.90;;;;;;5014426;28;20375;-72
2022/01/25 14:21:53;;;;;;;40.97;18.63;;;5.80;99.90;;;;;;5015783;28;20044;-73
2022/01/25 14:24:18;;;;;;;37.28;17.85;;;5.80;99.90;;;;;;5014526;28;20538;-73
2022/01/25 14:26:44;;;;;;;33.40;16.48;;;5.80;99.90;;;;;;5014344;28;20132;-70
2022/01/25 14:29:18;;;;;;;35.30;18.10;;;5.90;99.90;;;;;;5013650;28;20118;-72
2022/01/25 14:31:46;;;;;;;40.42;19.05;;;5.80;99.90;;;;;;5014564;28;20128;-71
2022/01/25 14:34:15;;;;;;;40.88;19.63;;;5.80;99.90;;;;;;5013662;28;20034;-72
2022/01/25 14:36:46;;;;;;;36.97;19.02;;;5.80;99.90;;;;;;5015289;28;20444;-73
2022/01/25 14:39:13;;;;;;;38.30;19.90;;;5.70;99.90;;;;;;5012150;28;20117;-69
2022/01/25 14:41:38;;;;;;;36.45;19.08;;;5.80;99.90;;;;;;5019105;28;20038;-70
2022/01/25 14:44:06;;;;;;;45.55;20.83;;;5.80;99.90;;;;;;5017847;28;20542;-70
2022/01/25 14:46:50;;;;;;;40.15;18.30;;;5.70;99.90;;;;;;5019356;28;20090;-70
2022/01/25 14:49:27;;;;;;;40.33;19.20;;;5.70;99.90;;;;;;5016127;28;20056;-73
2022/01/25 14:51:55;;;;;;;49.85;20.60;;;5.70;99.90;;;;;;5016596;28;20044;-70
2022/01/25 14:54:22;;;;;;;39.95;19.30;;;5.60;99.90;;;;;;5017145;28;20041;-71
2022/01/25 14:56:52;;;;;;;43.05;19.90;;;5.60;99.90;;;;;;5018067;28;20033;-71
2022/01/25 15:01:54;;;;;;;36.28;19.05;;;5.60;99.90;;;;;;5016950;28;20037;-72
2022/01/25 15:04:20;;;;;;;31.27;16.83;;;5.60;99.90;;;;;;5015157;28;20033;-73
2022/01/25 15:06:45;;;;;;;38.22;21.17;;;5.50;99.90;;;;;;5018761;28;20343;-73
2022/01/25 15:09:12;;;;;;;;;;;5.50;99.90;;;;;;5012430;28;20052;-71
2022/01/25 15:11:38;;;;;;;34.55;15.75;;;5.50;99.90;;;;;;5019717;28;19924;-70